Portada
METAR-TAF:

METAR-TAF

Aeroports :

Brageirac, França

latitud: 44-49N, longitud: 000-31E, altitud: 51 m

Observació

L'informe es va fer fa 29 minuts, a les 18:00 UTC
Vent 2 kt del Sud
Temperatura 15°C
Humitat 88%
Pressió 1019 hPa
Visibilitat 10 km o més
sense núvols per sota de 1500 mi sense presència de cumulonimbus.

METAR: LFBE 191800Z AUTO 18002KT CAVOK 15/13 Q1019 NOSIG

Hora: 20:29 (18:29 UTC)

Pronòstic

L'informe es va fer fa 7 hores i 29 minuts, a les 11:00 UTC
Pronòstic vàlid del 19 a les 12 UTC al 20 a les 12 UTC
Vent 3 kt amb direcció variable
Visibilitat 10 km o més
sense núvols per sota de 1500 mi sense presència de cumulonimbus.
Probabilitat 30%
l' 20 a les 03 UTC al 20 a les 07 UTC
boira en bancs

TAF: LFBE 191100Z 1912/2012 VRB03KT CAVOK PROB30 2003/2007 BCFG

Observacions i pronòstics meteorològics de més de 4000 aeroports (METAR i TAF).

Les estacions disponibles són els punts grocs i vermells al mapa.

Posi el ratolí al punt desitjat per veure el nom de l'estació.

Feu clic per veure les observacions i els pronòstics meteorològics.

Per canviar el mapa: feu clic els botons verds amb una creu de color negre per apropar; al botó verd amb un guió per allunyar la imatge; o en les fletxes verdes per a mapes adjacents.


METAR-TAF: